sensor_id;sensor_type;location;lat;lon;timestamp;P1;durP1;ratioP1;P2;durP2;ratioP2
50102;SDS011;35993;52.604;10.078;2023-02-11T00:01:34;40.58;;;19.65;;
50102;SDS011;35993;52.604;10.078;2023-02-11T00:04:00;44.92;;;20.67;;
50102;SDS011;35993;52.604;10.078;2023-02-11T00:06:27;45.38;;;21.50;;
50102;SDS011;35993;52.604;10.078;2023-02-11T00:08:55;44.33;;;21.75;;
50102;SDS011;35993;52.604;10.078;2023-02-11T00:11:21;43.88;;;21.77;;
50102;SDS011;35993;52.604;10.078;2023-02-11T00:13:49;47.60;;;21.13;;
50102;SDS011;35993;52.604;10.078;2023-02-11T00:16:16;44.85;;;22.35;;
50102;SDS011;35993;52.604;10.078;2023-02-11T00:18:44;49.85;;;22.45;;
50102;SDS011;35993;52.604;10.078;2023-02-11T00:21:11;45.80;;;20.58;;
50102;SDS011;35993;52.604;10.078;2023-02-11T00:23:39;47.28;;;22.67;;
50102;SDS011;35993;52.604;10.078;2023-02-11T00:26:15;42.22;;;21.35;;
50102;SDS011;35993;52.604;10.078;2023-02-11T00:28:43;47.00;;;22.02;;
50102;SDS011;35993;52.604;10.078;2023-02-11T00:31:09;47.35;;;22.30;;
50102;SDS011;35993;52.604;10.078;2023-02-11T00:33:36;50.05;;;22.42;;
50102;SDS011;35993;52.604;10.078;2023-02-11T00:36:05;50.50;;;23.13;;
50102;SDS011;35993;52.604;10.078;2023-02-11T00:38:33;48.05;;;23.33;;
50102;SDS011;35993;52.604;10.078;2023-02-11T00:40:59;44.00;;;22.00;;
50102;SDS011;35993;52.604;10.078;2023-02-11T00:43:24;50.80;;;23.10;;
50102;SDS011;35993;52.604;10.078;2023-02-11T00:45:50;51.58;;;23.55;;
50102;SDS011;35993;52.604;10.078;2023-02-11T00:48:16;51.10;;;22.50;;
50102;SDS011;35993;52.604;10.078;2023-02-11T00:50:41;51.25;;;23.15;;
50102;SDS011;35993;52.604;10.078;2023-02-11T00:53:07;48.70;;;21.60;;
50102;SDS011;35993;52.604;10.078;2023-02-11T00:55:33;49.53;;;21.90;;
50102;SDS011;35993;52.604;10.078;2023-02-11T00:57:59;50.30;;;21.83;;
50102;SDS011;35993;52.604;10.078;2023-02-11T01:00:25;45.40;;;22.33;;
50102;SDS011;35993;52.604;10.078;2023-02-11T01:02:51;48.10;;;21.63;;
50102;SDS011;35993;52.604;10.078;2023-02-11T01:05:17;47.38;;;21.77;;
50102;SDS011;35993;52.604;10.078;2023-02-11T01:07:43;49.70;;;24.35;;
50102;SDS011;35993;52.604;10.078;2023-02-11T01:10:09;46.17;;;22.85;;
50102;SDS011;35993;52.604;10.078;2023-02-11T01:12:35;48.13;;;22.88;;
50102;SDS011;35993;52.604;10.078;2023-02-11T01:15:03;54.25;;;23.98;;
50102;SDS011;35993;52.604;10.078;2023-02-11T01:17:31;48.88;;;22.70;;
50102;SDS011;35993;52.604;10.078;2023-02-11T01:19:57;54.20;;;24.17;;
50102;SDS011;35993;52.604;10.078;2023-02-11T01:22:23;51.80;;;22.10;;
50102;SDS011;35993;52.604;10.078;2023-02-11T01:24:48;52.67;;;24.52;;
50102;SDS011;35993;52.604;10.078;2023-02-11T01:27:14;51.78;;;23.88;;
50102;SDS011;35993;52.604;10.078;2023-02-11T01:29:39;54.00;;;23.83;;
50102;SDS011;35993;52.604;10.078;2023-02-11T01:32:05;52.15;;;24.13;;
50102;SDS011;35993;52.604;10.078;2023-02-11T01:34:31;47.83;;;23.67;;
50102;SDS011;35993;52.604;10.078;2023-02-11T01:36:59;50.28;;;24.33;;
50102;SDS011;35993;52.604;10.078;2023-02-11T01:39:27;51.08;;;22.00;;
50102;SDS011;35993;52.604;10.078;2023-02-11T01:41:53;56.22;;;24.42;;
50102;SDS011;35993;52.604;10.078;2023-02-11T01:46:50;52.25;;;23.13;;
50102;SDS011;35993;52.604;10.078;2023-02-11T01:49:20;53.70;;;24.50;;
50102;SDS011;35993;52.604;10.078;2023-02-11T01:51:58;54.47;;;24.90;;
50102;SDS011;35993;52.604;10.078;2023-02-11T01:54:31;51.42;;;23.60;;
50102;SDS011;35993;52.604;10.078;2023-02-11T01:57:19;53.55;;;23.90;;
50102;SDS011;35993;52.604;10.078;2023-02-11T01:59:55;55.40;;;24.40;;
50102;SDS011;35993;52.604;10.078;2023-02-11T02:02:24;52.22;;;23.85;;
50102;SDS011;35993;52.604;10.078;2023-02-11T02:04:59;49.42;;;23.80;;
50102;SDS011;35993;52.604;10.078;2023-02-11T02:07:41;62.35;;;25.35;;
50102;SDS011;35993;52.604;10.078;2023-02-11T02:10:30;54.15;;;24.73;;
50102;SDS011;35993;52.604;10.078;2023-02-11T02:12:58;51.83;;;23.40;;
50102;SDS011;35993;52.604;10.078;2023-02-11T02:15:31;53.15;;;23.52;;
50102;SDS011;35993;52.604;10.078;2023-02-11T02:24:13;57.90;;;23.33;;
50102;SDS011;35993;52.604;10.078;2023-02-11T02:31:40;55.08;;;24.85;;
50102;SDS011;35993;52.604;10.078;2023-02-11T02:34:22;56.78;;;25.52;;
50102;SDS011;35993;52.604;10.078;2023-02-11T02:39:30;56.90;;;24.67;;
50102;SDS011;35993;52.604;10.078;2023-02-11T02:41:59;62.17;;;25.55;;
50102;SDS011;35993;52.604;10.078;2023-02-11T02:44:26;58.45;;;24.63;;
50102;SDS011;35993;52.604;10.078;2023-02-11T02:46:52;51.60;;;23.95;;
50102;SDS011;35993;52.604;10.078;2023-02-11T02:49:18;61.50;;;26.05;;
50102;SDS011;35993;52.604;10.078;2023-02-11T03:03:04;52.67;;;24.95;;
50102;SDS011;35993;52.604;10.078;2023-02-11T03:05:47;58.83;;;24.77;;
50102;SDS011;35993;52.604;10.078;2023-02-11T03:08:17;54.60;;;24.33;;
50102;SDS011;35993;52.604;10.078;2023-02-11T03:10:52;57.22;;;25.73;;
50102;SDS011;35993;52.604;10.078;2023-02-11T03:13:20;57.75;;;24.00;;
50102;SDS011;35993;52.604;10.078;2023-02-11T03:15:52;54.53;;;23.67;;
50102;SDS011;35993;52.604;10.078;2023-02-11T03:18:21;53.33;;;24.17;;
50102;SDS011;35993;52.604;10.078;2023-02-11T03:20:51;59.67;;;25.58;;
50102;SDS011;35993;52.604;10.078;2023-02-11T03:23:28;51.58;;;24.20;;
50102;SDS011;35993;52.604;10.078;2023-02-11T03:25:58;62.35;;;24.98;;
50102;SDS011;35993;52.604;10.078;2023-02-11T03:28:41;59.63;;;23.70;;
50102;SDS011;35993;52.604;10.078;2023-02-11T03:31:36;51.90;;;22.92;;
50102;SDS011;35993;52.604;10.078;2023-02-11T03:34:26;55.08;;;24.08;;
50102;SDS011;35993;52.604;10.078;2023-02-11T03:37:00;62.33;;;25.10;;
50102;SDS011;35993;52.604;10.078;2023-02-11T03:39:50;58.53;;;24.38;;
50102;SDS011;35993;52.604;10.078;2023-02-11T03:42:21;57.13;;;23.95;;
50102;SDS011;35993;52.604;10.078;2023-02-11T03:44:52;60.30;;;25.08;;
50102;SDS011;35993;52.604;10.078;2023-02-11T03:49:50;52.70;;;21.83;;
50102;SDS011;35993;52.604;10.078;2023-02-11T03:52:19;58.67;;;23.13;;
50102;SDS011;35993;52.604;10.078;2023-02-11T03:54:48;58.10;;;24.48;;
50102;SDS011;35993;52.604;10.078;2023-02-11T03:57:17;60.15;;;23.23;;
50102;SDS011;35993;52.604;10.078;2023-02-11T03:59:56;53.78;;;23.25;;
50102;SDS011;35993;52.604;10.078;2023-02-11T04:02:24;59.92;;;23.98;;
50102;SDS011;35993;52.604;10.078;2023-02-11T04:04:54;63.67;;;23.93;;
50102;SDS011;35993;52.604;10.078;2023-02-11T04:07:20;56.63;;;23.60;;
50102;SDS011;35993;52.604;10.078;2023-02-11T04:09:46;59.72;;;24.00;;
50102;SDS011;35993;52.604;10.078;2023-02-11T04:12:11;53.40;;;24.02;;
50102;SDS011;35993;52.604;10.078;2023-02-11T04:14:37;55.05;;;24.50;;
50102;SDS011;35993;52.604;10.078;2023-02-11T04:17:02;52.05;;;24.63;;
50102;SDS011;35993;52.604;10.078;2023-02-11T04:19:28;59.58;;;23.73;;
50102;SDS011;35993;52.604;10.078;2023-02-11T04:21:54;63.50;;;25.23;;
50102;SDS011;35993;52.604;10.078;2023-02-11T04:24:19;60.10;;;24.70;;
50102;SDS011;35993;52.604;10.078;2023-02-11T04:26:45;57.15;;;24.15;;
50102;SDS011;35993;52.604;10.078;2023-02-11T04:29:11;57.22;;;23.55;;
50102;SDS011;35993;52.604;10.078;2023-02-11T04:31:36;54.63;;;23.85;;
50102;SDS011;35993;52.604;10.078;2023-02-11T04:34:02;58.05;;;24.58;;
50102;SDS011;35993;52.604;10.078;2023-02-11T04:36:27;53.60;;;23.08;;
50102;SDS011;35993;52.604;10.078;2023-02-11T04:38:53;55.55;;;24.40;;
50102;SDS011;35993;52.604;10.078;2023-02-11T04:41:18;52.58;;;23.67;;
50102;SDS011;35993;52.604;10.078;2023-02-11T04:43:44;54.35;;;23.35;;
50102;SDS011;35993;52.604;10.078;2023-02-11T04:46:09;49.75;;;23.00;;
50102;SDS011;35993;52.604;10.078;2023-02-11T04:48:35;60.90;;;24.42;;
50102;SDS011;35993;52.604;10.078;2023-02-11T04:51:01;53.05;;;23.13;;
50102;SDS011;35993;52.604;10.078;2023-02-11T04:53:27;56.05;;;23.15;;
50102;SDS011;35993;52.604;10.078;2023-02-11T04:55:53;56.08;;;23.23;;
50102;SDS011;35993;52.604;10.078;2023-02-11T04:58:19;55.13;;;23.25;;
50102;SDS011;35993;52.604;10.078;2023-02-11T05:00:45;52.10;;;21.95;;
50102;SDS011;35993;52.604;10.078;2023-02-11T05:03:10;49.88;;;22.00;;
50102;SDS011;35993;52.604;10.078;2023-02-11T05:05:37;54.53;;;22.55;;
50102;SDS011;35993;52.604;10.078;2023-02-11T05:08:05;53.97;;;23.65;;
50102;SDS011;35993;52.604;10.078;2023-02-11T05:10:31;53.53;;;22.20;;
50102;SDS011;35993;52.604;10.078;2023-02-11T05:12:56;52.08;;;22.67;;
50102;SDS011;35993;52.604;10.078;2023-02-11T05:15:22;56.95;;;22.25;;
50102;SDS011;35993;52.604;10.078;2023-02-11T05:17:48;49.65;;;21.80;;
50102;SDS011;35993;52.604;10.078;2023-02-11T05:20:14;57.58;;;22.80;;
50102;SDS011;35993;52.604;10.078;2023-02-11T05:22:40;53.60;;;22.65;;
50102;SDS011;35993;52.604;10.078;2023-02-11T05:25:05;54.10;;;22.45;;
50102;SDS011;35993;52.604;10.078;2023-02-11T05:27:31;47.85;;;22.20;;
50102;SDS011;35993;52.604;10.078;2023-02-11T05:29:57;52.13;;;22.38;;
50102;SDS011;35993;52.604;10.078;2023-02-11T05:32:22;53.53;;;21.33;;
50102;SDS011;35993;52.604;10.078;2023-02-11T05:34:48;49.95;;;21.63;;
50102;SDS011;35993;52.604;10.078;2023-02-11T05:37:14;45.78;;;21.10;;
50102;SDS011;35993;52.604;10.078;2023-02-11T05:39:40;52.60;;;21.77;;
50102;SDS011;35993;52.604;10.078;2023-02-11T05:42:05;47.88;;;22.15;;
50102;SDS011;35993;52.604;10.078;2023-02-11T05:44:31;51.60;;;22.63;;
50102;SDS011;35993;52.604;10.078;2023-02-11T05:46:57;52.00;;;22.13;;
50102;SDS011;35993;52.604;10.078;2023-02-11T05:49:22;51.08;;;21.20;;
50102;SDS011;35993;52.604;10.078;2023-02-11T05:51:48;49.13;;;21.08;;
50102;SDS011;35993;52.604;10.078;2023-02-11T05:54:14;43.92;;;20.63;;
50102;SDS011;35993;52.604;10.078;2023-02-11T05:56:39;44.72;;;20.33;;
50102;SDS011;35993;52.604;10.078;2023-02-11T05:59:05;51.00;;;21.73;;
50102;SDS011;35993;52.604;10.078;2023-02-11T06:01:31;53.53;;;21.75;;
50102;SDS011;35993;52.604;10.078;2023-02-11T06:03:56;45.83;;;20.17;;
50102;SDS011;35993;52.604;10.078;2023-02-11T06:06:22;48.25;;;21.63;;
50102;SDS011;35993;52.604;10.078;2023-02-11T06:08:47;45.63;;;20.88;;
50102;SDS011;35993;52.604;10.078;2023-02-11T06:11:14;44.25;;;21.58;;
50102;SDS011;35993;52.604;10.078;2023-02-11T06:13:40;42.90;;;20.10;;
50102;SDS011;35993;52.604;10.078;2023-02-11T06:16:06;50.28;;;20.98;;
50102;SDS011;35993;52.604;10.078;2023-02-11T06:18:31;48.90;;;21.50;;
50102;SDS011;35993;52.604;10.078;2023-02-11T06:20:58;41.65;;;19.40;;
50102;SDS011;35993;52.604;10.078;2023-02-11T06:23:24;45.13;;;20.48;;
50102;SDS011;35993;52.604;10.078;2023-02-11T06:25:50;52.15;;;19.48;;
50102;SDS011;35993;52.604;10.078;2023-02-11T06:28:17;53.40;;;20.80;;
50102;SDS011;35993;52.604;10.078;2023-02-11T06:30:43;40.20;;;19.77;;
50102;SDS011;35993;52.604;10.078;2023-02-11T06:33:08;48.28;;;20.10;;
50102;SDS011;35993;52.604;10.078;2023-02-11T06:35:34;38.42;;;19.15;;
50102;SDS011;35993;52.604;10.078;2023-02-11T06:38:02;42.72;;;19.50;;
50102;SDS011;35993;52.604;10.078;2023-02-11T06:40:28;46.00;;;19.00;;
50102;SDS011;35993;52.604;10.078;2023-02-11T06:42:53;44.03;;;19.08;;
50102;SDS011;35993;52.604;10.078;2023-02-11T06:45:19;42.42;;;19.67;;
50102;SDS011;35993;52.604;10.078;2023-02-11T06:47:45;41.70;;;19.67;;
50102;SDS011;35993;52.604;10.078;2023-02-11T06:50:12;39.03;;;19.00;;
50102;SDS011;35993;52.604;10.078;2023-02-11T06:52:38;41.60;;;18.98;;
50102;SDS011;35993;52.604;10.078;2023-02-11T06:55:05;42.30;;;18.27;;
50102;SDS011;35993;52.604;10.078;2023-02-11T06:57:31;43.50;;;18.73;;
50102;SDS011;35993;52.604;10.078;2023-02-11T06:59:56;37.90;;;17.10;;
50102;SDS011;35993;52.604;10.078;2023-02-11T07:02:22;43.90;;;19.40;;
50102;SDS011;35993;52.604;10.078;2023-02-11T07:04:48;35.67;;;17.80;;
50102;SDS011;35993;52.604;10.078;2023-02-11T07:07:13;40.95;;;16.67;;
50102;SDS011;35993;52.604;10.078;2023-02-11T07:09:39;48.67;;;19.02;;
50102;SDS011;35993;52.604;10.078;2023-02-11T07:12:04;37.70;;;17.90;;
50102;SDS011;35993;52.604;10.078;2023-02-11T07:14:30;38.78;;;19.10;;
50102;SDS011;35993;52.604;10.078;2023-02-11T07:16:56;41.33;;;18.05;;
50102;SDS011;35993;52.604;10.078;2023-02-11T07:19:22;42.72;;;17.17;;
50102;SDS011;35993;52.604;10.078;2023-02-11T07:21:47;36.10;;;19.00;;
50102;SDS011;35993;52.604;10.078;2023-02-11T07:24:13;38.25;;;17.85;;
50102;SDS011;35993;52.604;10.078;2023-02-11T07:26:38;40.28;;;17.90;;
50102;SDS011;35993;52.604;10.078;2023-02-11T07:29:04;34.97;;;17.27;;
50102;SDS011;35993;52.604;10.078;2023-02-11T07:31:30;41.15;;;18.73;;
50102;SDS011;35993;52.604;10.078;2023-02-11T07:33:57;38.08;;;17.70;;
50102;SDS011;35993;52.604;10.078;2023-02-11T07:36:24;40.42;;;18.15;;
50102;SDS011;35993;52.604;10.078;2023-02-11T07:38:51;37.38;;;17.38;;
50102;SDS011;35993;52.604;10.078;2023-02-11T07:41:18;38.17;;;17.35;;
50102;SDS011;35993;52.604;10.078;2023-02-11T07:43:45;43.13;;;17.83;;
50102;SDS011;35993;52.604;10.078;2023-02-11T07:46:21;32.85;;;16.73;;
50102;SDS011;35993;52.604;10.078;2023-02-11T07:48:48;40.90;;;16.75;;
50102;SDS011;35993;52.604;10.078;2023-02-11T07:51:15;39.97;;;17.08;;
50102;SDS011;35993;52.604;10.078;2023-02-11T07:53:43;35.10;;;16.15;;
50102;SDS011;35993;52.604;10.078;2023-02-11T07:56:10;37.22;;;16.13;;
50102;SDS011;35993;52.604;10.078;2023-02-11T07:58:37;31.15;;;15.38;;
50102;SDS011;35993;52.604;10.078;2023-02-11T08:01:04;40.80;;;16.58;;
50102;SDS011;35993;52.604;10.078;2023-02-11T08:03:31;37.78;;;17.63;;
50102;SDS011;35993;52.604;10.078;2023-02-11T08:06:01;38.08;;;15.27;;
50102;SDS011;35993;52.604;10.078;2023-02-11T08:08:28;32.97;;;16.55;;
50102;SDS011;35993;52.604;10.078;2023-02-11T08:10:54;33.17;;;15.43;;
50102;SDS011;35993;52.604;10.078;2023-02-11T08:13:19;31.38;;;16.75;;
50102;SDS011;35993;52.604;10.078;2023-02-11T08:15:45;39.35;;;16.85;;
50102;SDS011;35993;52.604;10.078;2023-02-11T08:18:11;36.45;;;16.63;;
50102;SDS011;35993;52.604;10.078;2023-02-11T08:20:37;32.88;;;16.15;;
50102;SDS011;35993;52.604;10.078;2023-02-11T08:23:04;30.40;;;15.55;;
50102;SDS011;35993;52.604;10.078;2023-02-11T08:25:31;35.45;;;17.00;;
50102;SDS011;35993;52.604;10.078;2023-02-11T08:27:57;36.95;;;16.45;;
50102;SDS011;35993;52.604;10.078;2023-02-11T08:30:22;34.90;;;16.90;;
50102;SDS011;35993;52.604;10.078;2023-02-11T08:32:49;38.70;;;17.23;;
50102;SDS011;35993;52.604;10.078;2023-02-11T08:35:15;34.25;;;16.35;;
50102;SDS011;35993;52.604;10.078;2023-02-11T08:37:41;28.55;;;15.32;;
50102;SDS011;35993;52.604;10.078;2023-02-11T08:40:07;29.30;;;15.23;;
50102;SDS011;35993;52.604;10.078;2023-02-11T08:42:33;34.40;;;17.45;;
50102;SDS011;35993;52.604;10.078;2023-02-11T08:44:59;35.03;;;17.10;;
50102;SDS011;35993;52.604;10.078;2023-02-11T08:47:24;35.80;;;14.88;;
50102;SDS011;35993;52.604;10.078;2023-02-11T08:49:50;30.27;;;15.38;;
50102;SDS011;35993;52.604;10.078;2023-02-11T08:52:16;27.02;;;14.25;;
50102;SDS011;35993;52.604;10.078;2023-02-11T08:54:42;36.00;;;15.38;;
50102;SDS011;35993;52.604;10.078;2023-02-11T08:57:07;33.78;;;15.63;;
50102;SDS011;35993;52.604;10.078;2023-02-11T08:59:33;30.00;;;15.98;;
50102;SDS011;35993;52.604;10.078;2023-02-11T09:01:59;35.13;;;16.35;;
50102;SDS011;35993;52.604;10.078;2023-02-11T09:04:24;38.70;;;16.00;;
50102;SDS011;35993;52.604;10.078;2023-02-11T09:06:50;35.83;;;16.45;;
50102;SDS011;35993;52.604;10.078;2023-02-11T09:09:16;34.80;;;16.33;;
50102;SDS011;35993;52.604;10.078;2023-02-11T09:11:42;31.15;;;16.02;;
50102;SDS011;35993;52.604;10.078;2023-02-11T09:14:14;40.00;;;16.67;;
50102;SDS011;35993;52.604;10.078;2023-02-11T09:16:42;31.50;;;15.70;;
50102;SDS011;35993;52.604;10.078;2023-02-11T09:19:08;32.50;;;16.23;;
50102;SDS011;35993;52.604;10.078;2023-02-11T09:21:35;43.97;;;21.33;;
50102;SDS011;35993;52.604;10.078;2023-02-11T09:24:00;43.80;;;19.65;;
50102;SDS011;35993;52.604;10.078;2023-02-11T09:26:27;36.30;;;16.48;;
50102;SDS011;35993;52.604;10.078;2023-02-11T09:28:54;36.95;;;15.98;;
50102;SDS011;35993;52.604;10.078;2023-02-11T09:31:21;39.97;;;15.75;;
50102;SDS011;35993;52.604;10.078;2023-02-11T09:33:49;35.20;;;15.65;;
50102;SDS011;35993;52.604;10.078;2023-02-11T09:36:20;41.15;;;19.73;;
50102;SDS011;35993;52.604;10.078;2023-02-11T09:38:47;54.17;;;24.42;;
50102;SDS011;35993;52.604;10.078;2023-02-11T09:41:20;91.68;;;40.05;;
50102;SDS011;35993;52.604;10.078;2023-02-11T09:43:53;59.05;;;27.63;;
50102;SDS011;35993;52.604;10.078;2023-02-11T09:46:25;59.38;;;27.55;;
50102;SDS011;35993;52.604;10.078;2023-02-11T09:48:56;51.67;;;22.42;;
50102;SDS011;35993;52.604;10.078;2023-02-11T09:51:29;64.22;;;32.13;;
50102;SDS011;35993;52.604;10.078;2023-02-11T09:54:10;48.83;;;21.95;;
50102;SDS011;35993;52.604;10.078;2023-02-11T09:56:41;35.17;;;17.88;;
50102;SDS011;35993;52.604;10.078;2023-02-11T09:59:09;37.33;;;19.08;;
50102;SDS011;35993;52.604;10.078;2023-02-11T10:07:08;40.55;;;17.20;;
50102;SDS011;35993;52.604;10.078;2023-02-11T10:20:30;38.65;;;17.48;;
50102;SDS011;35993;52.604;10.078;2023-02-11T10:23:04;39.55;;;18.13;;
50102;SDS011;35993;52.604;10.078;2023-02-11T10:25:48;35.92;;;16.48;;
50102;SDS011;35993;52.604;10.078;2023-02-11T10:31:08;39.40;;;19.40;;
50102;SDS011;35993;52.604;10.078;2023-02-11T10:33:44;42.55;;;17.73;;
50102;SDS011;35993;52.604;10.078;2023-02-11T10:36:16;32.80;;;16.10;;
50102;SDS011;35993;52.604;10.078;2023-02-11T10:38:43;33.88;;;16.40;;
50102;SDS011;35993;52.604;10.078;2023-02-11T10:41:10;37.20;;;17.60;;
50102;SDS011;35993;52.604;10.078;2023-02-11T10:43:41;28.92;;;15.52;;
50102;SDS011;35993;52.604;10.078;2023-02-11T10:46:08;33.70;;;15.60;;
50102;SDS011;35993;52.604;10.078;2023-02-11T10:48:43;35.22;;;15.35;;
50102;SDS011;35993;52.604;10.078;2023-02-11T10:53:39;29.05;;;14.80;;
50102;SDS011;35993;52.604;10.078;2023-02-11T10:56:05;37.33;;;16.90;;
50102;SDS011;35993;52.604;10.078;2023-02-11T11:01:18;33.30;;;15.00;;
50102;SDS011;35993;52.604;10.078;2023-02-11T11:03:46;34.72;;;15.15;;
50102;SDS011;35993;52.604;10.078;2023-02-11T11:06:13;34.03;;;15.73;;
50102;SDS011;35993;52.604;10.078;2023-02-11T11:08:46;41.60;;;16.95;;
50102;SDS011;35993;52.604;10.078;2023-02-11T11:11:14;46.92;;;21.17;;
50102;SDS011;35993;52.604;10.078;2023-02-11T11:18:50;44.40;;;21.00;;
50102;SDS011;35993;52.604;10.078;2023-02-11T11:21:19;37.05;;;19.00;;
50102;SDS011;35993;52.604;10.078;2023-02-11T11:23:48;33.38;;;16.20;;
50102;SDS011;35993;52.604;10.078;2023-02-11T11:26:16;30.77;;;16.02;;
50102;SDS011;35993;52.604;10.078;2023-02-11T11:31:32;26.55;;;14.85;;
50102;SDS011;35993;52.604;10.078;2023-02-11T11:34:19;39.05;;;18.08;;
50102;SDS011;35993;52.604;10.078;2023-02-11T11:36:50;28.88;;;15.48;;
50102;SDS011;35993;52.604;10.078;2023-02-11T11:39:21;32.75;;;15.32;;
50102;SDS011;35993;52.604;10.078;2023-02-11T11:41:56;32.40;;;14.60;;
50102;SDS011;35993;52.604;10.078;2023-02-11T11:52:31;27.48;;;13.90;;
50102;SDS011;35993;52.604;10.078;2023-02-11T11:55:04;30.30;;;15.50;;
50102;SDS011;35993;52.604;10.078;2023-02-11T11:57:37;29.88;;;15.82;;
50102;SDS011;35993;52.604;10.078;2023-02-11T12:00:04;29.70;;;15.25;;
50102;SDS011;35993;52.604;10.078;2023-02-11T12:05:35;28.75;;;14.63;;
50102;SDS011;35993;52.604;10.078;2023-02-11T12:13:23;28.30;;;14.20;;
50102;SDS011;35993;52.604;10.078;2023-02-11T12:15:54;27.77;;;14.55;;
50102;SDS011;35993;52.604;10.078;2023-02-11T12:21:37;27.42;;;14.18;;
50102;SDS011;35993;52.604;10.078;2023-02-11T12:32:31;28.83;;;14.45;;
50102;SDS011;35993;52.604;10.078;2023-02-11T12:35:28;24.77;;;13.40;;
50102;SDS011;35993;52.604;10.078;2023-02-11T12:41:03;27.95;;;13.50;;
50102;SDS011;35993;52.604;10.078;2023-02-11T12:43:38;29.15;;;14.50;;
50102;SDS011;35993;52.604;10.078;2023-02-11T12:54:48;27.95;;;16.30;;
50102;SDS011;35993;52.604;10.078;2023-02-11T12:57:21;31.23;;;16.48;;
50102;SDS011;35993;52.604;10.078;2023-02-11T13:03:11;30.65;;;15.98;;
50102;SDS011;35993;52.604;10.078;2023-02-11T13:05:46;27.30;;;16.02;;
50102;SDS011;35993;52.604;10.078;2023-02-11T13:11:03;28.17;;;15.15;;
50102;SDS011;35993;52.604;10.078;2023-02-11T13:13:38;31.42;;;16.42;;
50102;SDS011;35993;52.604;10.078;2023-02-11T13:16:34;29.17;;;15.45;;
50102;SDS011;35993;52.604;10.078;2023-02-11T13:24:24;26.90;;;14.25;;
50102;SDS011;35993;52.604;10.078;2023-02-11T13:27:17;26.65;;;14.27;;
50102;SDS011;35993;52.604;10.078;2023-02-11T13:35:26;24.50;;;14.10;;
50102;SDS011;35993;52.604;10.078;2023-02-11T13:37:55;25.30;;;14.27;;
50102;SDS011;35993;52.604;10.078;2023-02-11T13:40:24;25.30;;;13.35;;
50102;SDS011;35993;52.604;10.078;2023-02-11T13:42:54;26.50;;;14.18;;
50102;SDS011;35993;52.604;10.078;2023-02-11T13:48:05;28.48;;;15.13;;
50102;SDS011;35993;52.604;10.078;2023-02-11T13:50:44;31.50;;;16.48;;
50102;SDS011;35993;52.604;10.078;2023-02-11T13:53:12;35.60;;;16.13;;
50102;SDS011;35993;52.604;10.078;2023-02-11T13:55:41;29.88;;;14.68;;
50102;SDS011;35993;52.604;10.078;2023-02-11T14:06:09;26.25;;;14.77;;
50102;SDS011;35993;52.604;10.078;2023-02-11T14:19:31;26.85;;;14.32;;
50102;SDS011;35993;52.604;10.078;2023-02-11T14:24:58;31.20;;;14.43;;
50102;SDS011;35993;52.604;10.078;2023-02-11T14:27:29;32.20;;;15.73;;
50102;SDS011;35993;52.604;10.078;2023-02-11T14:38:03;29.15;;;15.57;;
50102;SDS011;35993;52.604;10.078;2023-02-11T14:43:12;33.72;;;14.25;;
50102;SDS011;35993;52.604;10.078;2023-02-11T14:45:44;36.10;;;18.65;;
50102;SDS011;35993;52.604;10.078;2023-02-11T14:48:15;29.43;;;15.27;;
50102;SDS011;35993;52.604;10.078;2023-02-11T14:53:21;29.02;;;15.00;;
50102;SDS011;35993;52.604;10.078;2023-02-11T14:55:50;27.15;;;15.05;;
50102;SDS011;35993;52.604;10.078;2023-02-11T14:58:18;30.05;;;16.38;;
50102;SDS011;35993;52.604;10.078;2023-02-11T15:00:55;31.02;;;15.80;;
50102;SDS011;35993;52.604;10.078;2023-02-11T15:05:54;29.08;;;15.02;;
50102;SDS011;35993;52.604;10.078;2023-02-11T15:08:21;28.25;;;13.75;;
50102;SDS011;35993;52.604;10.078;2023-02-11T15:10:46;34.83;;;19.52;;
50102;SDS011;35993;52.604;10.078;2023-02-11T15:13:16;34.05;;;17.67;;
50102;SDS011;35993;52.604;10.078;2023-02-11T15:15:44;36.78;;;19.27;;
50102;SDS011;35993;52.604;10.078;2023-02-11T15:18:15;33.13;;;19.10;;
50102;SDS011;35993;52.604;10.078;2023-02-11T15:20:47;32.83;;;16.05;;
50102;SDS011;35993;52.604;10.078;2023-02-11T15:23:20;30.20;;;17.35;;
50102;SDS011;35993;52.604;10.078;2023-02-11T15:25:51;25.58;;;13.73;;
50102;SDS011;35993;52.604;10.078;2023-02-11T15:28:33;30.67;;;15.60;;
50102;SDS011;35993;52.604;10.078;2023-02-11T15:33:27;33.00;;;15.13;;
50102;SDS011;35993;52.604;10.078;2023-02-11T15:35:55;27.13;;;14.68;;
50102;SDS011;35993;52.604;10.078;2023-02-11T15:38:21;26.38;;;13.98;;
50102;SDS011;35993;52.604;10.078;2023-02-11T15:40:52;28.85;;;16.83;;
50102;SDS011;35993;52.604;10.078;2023-02-11T15:43:20;28.67;;;14.02;;
50102;SDS011;35993;52.604;10.078;2023-02-11T15:45:55;35.08;;;14.90;;
50102;SDS011;35993;52.604;10.078;2023-02-11T15:48:27;29.65;;;14.43;;
50102;SDS011;35993;52.604;10.078;2023-02-11T15:51:02;31.92;;;14.52;;
50102;SDS011;35993;52.604;10.078;2023-02-11T15:53:37;31.83;;;13.55;;
50102;SDS011;35993;52.604;10.078;2023-02-11T15:58:44;28.95;;;14.60;;
50102;SDS011;35993;52.604;10.078;2023-02-11T16:01:12;28.45;;;13.90;;
50102;SDS011;35993;52.604;10.078;2023-02-11T16:03:39;29.38;;;13.55;;
50102;SDS011;35993;52.604;10.078;2023-02-11T16:11:35;29.73;;;13.13;;
50102;SDS011;35993;52.604;10.078;2023-02-11T16:14:22;29.90;;;13.52;;
50102;SDS011;35993;52.604;10.078;2023-02-11T16:19:34;25.55;;;12.63;;
50102;SDS011;35993;52.604;10.078;2023-02-11T16:22:05;27.25;;;13.60;;
50102;SDS011;35993;52.604;10.078;2023-02-11T16:24:33;29.15;;;13.15;;
50102;SDS011;35993;52.604;10.078;2023-02-11T16:27:01;30.48;;;14.38;;
50102;SDS011;35993;52.604;10.078;2023-02-11T16:29:30;27.92;;;13.05;;
50102;SDS011;35993;52.604;10.078;2023-02-11T16:34:56;25.15;;;12.50;;
50102;SDS011;35993;52.604;10.078;2023-02-11T16:37:23;24.23;;;12.50;;
50102;SDS011;35993;52.604;10.078;2023-02-11T16:39:52;23.58;;;12.23;;
50102;SDS011;35993;52.604;10.078;2023-02-11T16:42:18;27.55;;;12.85;;
50102;SDS011;35993;52.604;10.078;2023-02-11T16:44:44;28.30;;;13.50;;
50102;SDS011;35993;52.604;10.078;2023-02-11T16:47:16;40.92;;;20.63;;
50102;SDS011;35993;52.604;10.078;2023-02-11T16:49:45;31.85;;;14.88;;
50102;SDS011;35993;52.604;10.078;2023-02-11T16:52:14;24.23;;;13.88;;
50102;SDS011;35993;52.604;10.078;2023-02-11T16:54:40;38.53;;;19.20;;
50102;SDS011;35993;52.604;10.078;2023-02-11T16:57:13;35.20;;;17.75;;
50102;SDS011;35993;52.604;10.078;2023-02-11T16:59:44;32.00;;;14.82;;
50102;SDS011;35993;52.604;10.078;2023-02-11T17:02:21;41.72;;;20.27;;
50102;SDS011;35993;52.604;10.078;2023-02-11T17:04:50;35.65;;;18.02;;
50102;SDS011;35993;52.604;10.078;2023-02-11T17:07:18;37.00;;;20.05;;
50102;SDS011;35993;52.604;10.078;2023-02-11T17:09:43;33.15;;;15.60;;
50102;SDS011;35993;52.604;10.078;2023-02-11T17:12:09;25.88;;;12.93;;
50102;SDS011;35993;52.604;10.078;2023-02-11T17:14:34;28.77;;;13.75;;